Flight Track Log - Related Links

Times and Time Zones

All times are in EDT time to prevent confusion due to time zone crossing. See the BJS439 flight status page for this flight to view local times or setup timezone preferences in your user account.

Time Position Orientation Groundspeed Altitude Reporting Facility
EDT Latitude Longitude Course Direction KTS MPH feet Rate Location/Type
Sun 08:12:05 AM 39.3333 -76.4333 201° Southwest 165 190 1,200  Level Potomac TRACON
Sun 08:13:05 AM 39.3000 -76.4500 201° Southwest 205 236 3,200 2,856 Climbing Potomac TRACON
Sun 08:15:12 AM 39.2028 -76.3361 138° Southeast 237 273 10,100 3,547 Climbing Washington Center
Sun 08:17:12 AM 39.1897 -76.0575 93° East 347 399 17,800 4,000 Climbing Washington Center
Sun 08:18:12 AM 39.1817 -75.9022 94° East 404 465 22,100 2,550 Climbing Washington Center
Sun 08:19:12 AM 39.1697 -75.7308 95° East 445 512 22,900 450 Climbing Washington Center
Sun 08:20:12 AM 39.1550 -75.5542 96° East 479 551 23,000 50 Climbing Washington Center
Sun 08:21:12 AM 39.1425 -75.3775 95° East 492 566 23,000 350 Level Washington Center
Sun 08:22:12 AM 39.1356 -75.2036 93° East 497 572 23,700 1,600 Climbing Washington Center
Sun 08:23:12 AM 39.1914 -75.0372 67° East 486 559 26,200 1,600 Climbing Washington Center
Sun 08:24:12 AM 39.2550 -74.8733 63° Northeast 498 573 26,900 200 Climbing Washington Center
Sun 08:25:12 AM 39.3164 -74.7064 65° Northeast 504 580 26,600 -1,642 Descending Washington Center
Sun 08:27:33 AM 39.4556 -74.3228 65° Northeast 505 581 21,400 -1,663 Descending New York Center
Sun 08:28:34 AM 39.5122 -74.1722 64° Northeast 480 552 21,000 -197 Descending New York Center
Sun 08:29:35 AM 39.5867 -74.0411 54° Northeast 460 529 21,000 -700 Level New York Center
Sun 08:30:34 AM 39.6753 -73.9292 44° Northeast 448 516 19,600 -1,438 Descending New York Center
Sun 08:31:36 AM 39.7636 -73.8197 44° Northeast 437 503 18,100 -1,279 Descending New York Center
Sun 08:32:36 AM 39.8478 -73.7072 46° Northeast 431 496 17,000 -559 Descending New York Center
Sun 08:33:34 AM 39.9278 -73.5969 47° Northeast 420 483 17,000  Level New York Center
Sun 08:34:35 AM 40.0050 -73.4969 45° Northeast 420 483 17,000 -689 Level New York Center
Sun 08:36:37 AM 40.0889 -73.1886 70° East 441 507 14,900 -1,525 Descending Boston Center
Sun 08:38:31 AM 40.2333 -73.0167 42° Northeast 362 417 11,000 -1,467 Descending New York TRACON
Sun 08:39:37 AM 40.3333 -72.9333 32° Northeast 363 418 10,500 -700 Descending New York TRACON
Sun 08:40:31 AM 40.4000 -72.9000 21° North 307 353 9,600 -1,500 Descending New York TRACON
Sun 08:41:37 AM 40.4833 -72.8667 17° North 279 321 7,500 -1,773 Descending New York TRACON
Sun 08:42:43 AM 40.5667 -72.8833 351° North 259 298 5,700 -1,316 Descending New York TRACON
Sun 08:43:31 AM 40.6167 -72.9000 346° North 259 298 5,000 -421 Descending New York TRACON
Sun 08:44:37 AM 40.7000 -72.9333 343° North 253 291 4,900 -425 Descending New York TRACON
Sun 08:45:38 AM 40.7667 -72.9500 349° North 258 297 4,100 -446 Descending New York TRACON
Sun 08:46:38 AM 40.8333 -72.9667 349° North 259 298 4,000 -300 Descending New York TRACON
Sun 08:47:38 AM 40.9000 -72.9833 349° North 256 295 3,500 -500 Descending New York TRACON
Sun 08:48:38 AM 40.9833 -73.0000 351° North 256 295 3,000 -250 Descending New York TRACON
Sun 08:49:38 AM 41.0500 -73.0167 349° North 254 292 3,000  Level New York TRACON
Sun 08:50:38 AM 41.1167 -73.0333 349° North 251 289 3,000  Level New York TRACON
Sun 08:51:38 AM 41.1667 -73.0833 323° Northwest 240 276 3,000  Level New York TRACON
Sun 08:52:44 AM 41.2333 -73.1500 323° Northwest 240 276 3,000  Level New York TRACON
Sun 08:53:44 AM 41.2833 -73.1667 346° North 221 254 3,000 -95 Level New York TRACON
Sun 08:54:50 AM 41.3500 -73.1500 11° North 201 231 2,800 -545 Descending New York TRACON
Sun 08:55:45 AM 41.3833 -73.1000 48° Northeast 205 236 1,900 -982 Descending New York TRACON
Sun 08:57:00 AM 41.4667 -73.1333 349° North  Level FlightAware Approximate
Sun 09:04:00 AM 41.4786 -73.1352 349° North  Level Estimated

Login

Don't have an account? Register now (free) for customized features, flight alerts, and more!